Time;durP1;ratioP1;P1;durP2;ratioP2;P2;SDS_P1;SDS_P2;PMS_P1;PMS_P2;Temp;Humidity;BMP_temperature;BMP_pressure;BME280_temperature;BME280_humidity;BME280_pressure;Samples;Min_cycle;Max_cycle;Signal;HPM_P1;HPM_P2
2022/10/28 00:04:04;;;;;;;;;;;11.50;99.90;;;10.48;100.00;96599.47;10538400;28;1105;-72
2022/10/28 00:09:06;;;;;;;;;;;11.50;99.90;;;10.47;100.00;96595.19;10537133;28;1886;-71
2022/10/28 00:14:13;;;;;;;;;;;11.40;99.90;;;10.43;100.00;96594.03;10538608;28;1802;-72
2022/10/28 00:19:16;;;;;;;;;;;11.40;99.90;;;10.37;100.00;96587.81;10542410;28;1181;-72
2022/10/28 00:24:19;;;;;;;;;;;11.30;99.90;;;10.37;100.00;96592.38;10542497;28;1660;-72
2022/10/28 00:29:23;;;;;;;;;;;11.30;99.90;;;10.36;100.00;96590.75;10540092;28;1905;-72
2022/10/28 00:34:26;;;;;;;;;;;11.30;99.90;;;10.32;100.00;96589.66;10538425;28;1142;-73
2022/10/28 00:39:29;;;;;;;;;;;11.30;99.90;;;10.39;100.00;96585.69;10536650;28;1660;-73
2022/10/28 00:44:32;;;;;;;;;;;11.40;99.90;;;10.47;100.00;96585.22;10529945;28;1679;-72
2022/10/28 00:49:36;;;;;;;;;;;11.40;99.90;;;10.55;100.00;96568.63;10538598;28;1989;-71
2022/10/28 00:54:38;;;;;;;;;;;11.50;99.90;;;10.68;100.00;96562.03;10525593;28;1643;-72
2022/10/28 00:59:41;;;;;;;;;;;11.60;99.90;;;10.81;100.00;96558.97;10535213;28;1750;-74
2022/10/28 01:04:44;;;;;;;;;;;11.70;99.90;;;10.80;100.00;96556.50;10531516;28;1739;-72
2022/10/28 01:09:47;;;;;;;;;;;11.70;99.90;;;10.72;100.00;96555.09;10531520;28;1324;-73
2022/10/28 01:14:49;;;;;;;;;;;11.70;99.90;;;10.67;100.00;96552.34;10534468;28;1636;-73
2022/10/28 01:19:52;;;;;;;;;;;11.70;99.90;;;10.67;100.00;96552.34;10538219;28;1192;-74
2022/10/28 01:24:55;;;;;;;;;;;11.60;99.90;;;10.59;100.00;96544.75;10534325;28;1909;-73
2022/10/28 01:29:58;;;;;;;;;;;11.60;99.90;;;10.56;100.00;96537.22;10528547;28;1520;-71
2022/10/28 01:35:00;;;;;;;;;;;11.60;99.90;;;10.54;100.00;96547.41;10537223;28;1177;-74
2022/10/28 01:40:06;;;;;;;;;;;11.50;99.90;;;10.51;100.00;96542.53;10531809;28;1651;-74
2022/10/28 01:45:09;;;;;;;;;;;11.40;99.90;;;10.51;100.00;96547.91;10535288;28;1967;-75
2022/10/28 01:50:11;;;;;;;;;;;11.40;99.90;;;10.54;100.00;96545.50;10529705;28;1573;-74
2022/10/28 01:55:14;;;;;;;;;;;11.40;99.90;;;10.53;100.00;96549.28;10526505;28;1660;-72
2022/10/28 02:00:17;;;;;;;;;;;11.40;99.90;;;10.49;100.00;96552.72;10532817;28;1528;-70
2022/10/28 02:05:20;;;;;;;;;;;11.40;99.90;;;10.38;100.00;96546.44;10528470;28;1926;-72
2022/10/28 02:10:22;;;;;;;;;;;11.30;99.90;;;10.31;100.00;96545.00;10534765;28;1184;-74
2022/10/28 02:15:25;;;;;;;;;;;11.30;99.90;;;10.18;100.00;96546.16;10526996;28;1695;-72
2022/10/28 02:20:28;;;;;;;;;;;11.20;99.90;;;10.16;100.00;96540.25;10541902;28;1185;-76
2022/10/28 02:25:30;;;;;;;;;;;11.20;99.90;;;10.18;100.00;96543.50;10529208;28;1972;-75
2022/10/28 02:30:33;;;;;;;;;;;11.10;99.90;;;10.08;100.00;96546.88;10527198;28;1427;-73
2022/10/28 02:35:35;;;;;;;;;;;11.10;99.90;;;10.09;100.00;96548.50;10538854;28;1549;-74
2022/10/28 02:40:38;;;;;;;;;;;11.10;99.90;;;10.02;100.00;96542.50;10544007;28;1157;-73
2022/10/28 02:45:41;;;;;;;;;;;11.10;99.90;;;10.03;100.00;96549.50;10541682;28;1902;-71
2022/10/28 02:50:44;;;;;;;;;;;11.00;99.90;;;9.95;100.00;96537.34;10540700;28;1118;-71
2022/10/28 02:55:46;;;;;;;;;;;11.00;99.90;;;9.91;100.00;96535.41;10538087;28;1644;-71
2022/10/28 03:00:50;;;;;;;;;;;11.00;99.90;;;9.92;100.00;96542.38;10539341;28;1687;-71
2022/10/28 03:05:52;;;;;;;;;;;11.00;99.90;;;9.91;100.00;96538.88;10539040;28;1975;-74
2022/10/28 03:10:55;;;;;;;;;;;10.90;99.90;;;9.88;100.00;96530.53;10540294;28;1125;-72
2022/10/28 03:15:58;;;;;;;;;;;10.90;99.90;;;9.90;100.00;96533.78;10547272;28;1703;-71
2022/10/28 03:21:01;;;;;;;;;;;10.90;99.90;;;9.89;100.00;96537.53;10507134;28;1121;-71
2022/10/28 03:26:03;;;;;;;;;;;10.90;99.90;;;9.95;100.00;96533.84;10521065;28;1976;-70
2022/10/28 03:31:06;;;;;;;;;;;10.90;99.90;;;9.84;100.00;96535.59;10538398;28;1710;-72
2022/10/28 03:36:09;;;;;;;;;;;10.90;99.90;;;9.77;100.00;96536.84;10538912;28;1166;-72
2022/10/28 03:41:11;;;;;;;;;;;10.80;99.90;;;9.73;100.00;96540.03;10539552;28;1940;-73
2022/10/28 03:46:14;;;;;;;;;;;10.80;99.90;;;9.73;100.00;96540.03;10537708;28;1975;-73
2022/10/28 03:51:17;;;;;;;;;;;10.80;99.90;;;9.70;100.00;96534.34;10538350;28;1201;-71
2022/10/28 03:56:19;;;;;;;;;;;10.70;99.90;;;9.81;100.00;96532.59;10533878;28;1635;-72
2022/10/28 04:01:22;;;;;;;;;;;10.70;99.90;;;9.70;100.00;96535.16;10544608;28;1644;-73
2022/10/28 04:06:25;;;;;;;;;;;10.70;99.90;;;9.65;100.00;96542.31;10534417;28;1910;-73
2022/10/28 04:11:27;;;;;;;;;;;10.60;99.90;;;9.53;100.00;96531.69;10537603;28;1074;-72
2022/10/28 04:16:30;;;;;;;;;;;10.60;99.90;;;9.54;100.00;96545.91;10535921;28;1620;-73
2022/10/28 04:21:38;;;;;;;;;;;10.50;99.90;;;9.58;100.00;96537.13;10539048;28;817;-75
2022/10/28 04:26:41;;;;;;;;;;;10.50;99.90;;;9.55;100.00;96543.00;10534763;28;1987;-70
2022/10/28 04:31:46;;;;;;;;;;;10.60;99.90;;;9.55;100.00;96532.28;10533022;28;1142;-72
2022/10/28 04:36:53;;;;;;;;;;;10.50;99.90;;;9.60;100.00;96535.00;10534976;28;1485;-71
2022/10/28 04:41:56;;;;;;;;;;;10.70;99.90;;;9.51;100.00;96536.50;10537524;28;1129;-71
2022/10/28 04:46:59;;;;;;;;;;;10.60;99.90;;;9.50;100.00;96540.25;10534618;28;1957;-72
2022/10/28 04:52:02;;;;;;;;;;;10.60;99.90;;;9.47;100.00;96540.72;10497014;28;1168;-71
2022/10/28 04:57:04;;;;;;;;;;;10.60;99.90;;;9.53;100.00;96539.75;10507614;28;1616;-71
2022/10/28 05:02:07;;;;;;;;;;;10.60;99.90;;;9.54;100.00;96525.25;10535249;28;1161;-72
2022/10/28 05:07:10;;;;;;;;;;;10.50;99.90;;;9.37;100.00;96529.88;10533904;28;1984;-72
2022/10/28 05:12:13;;;;;;;;;;;10.40;99.90;;;9.35;100.00;96526.63;10535131;28;1282;-72
2022/10/28 05:17:15;;;;;;;;;;;10.40;99.90;;;9.39;100.00;96527.75;10548984;28;1699;-74
2022/10/28 05:22:18;;;;;;;;;;;10.40;99.90;;;9.37;100.00;96517.28;10537224;28;1252;-72
2022/10/28 05:27:20;;;;;;;;;;;10.40;99.90;;;9.40;100.00;96516.75;10525165;28;1934;-71
2022/10/28 05:32:23;;;;;;;;;;;10.40;99.90;;;9.42;100.00;96513.84;10537128;28;1181;-72
2022/10/28 05:37:26;;;;;;;;;;;10.40;99.90;;;9.29;100.00;96511.50;10534821;28;1711;-72
2022/10/28 05:42:28;;;;;;;;;;;10.30;99.90;;;9.30;100.00;96518.50;10538233;28;1114;-72
2022/10/28 05:47:31;;;;;;;;;;;10.30;99.90;;;9.41;100.00;96514.88;10545723;28;1981;-72
2022/10/28 05:52:39;;;;;;;;;;;10.30;99.90;;;9.46;100.00;96514.97;10535114;28;1110;-73
2022/10/28 05:57:41;;;;;;;;;;;10.40;99.90;;;9.48;100.00;96515.53;10531061;28;1651;-72
2022/10/28 06:02:44;;;;;;;;;;;10.40;99.90;;;9.63;100.00;96523.78;10533751;28;1268;-71
2022/10/28 06:07:47;;;;;;;;;;;10.50;99.90;;;9.79;100.00;96532.84;10532325;28;1975;-73
2022/10/28 06:12:49;;;;;;;;;;;10.60;99.90;;;9.93;100.00;96538.66;10535021;28;1144;-74
2022/10/28 06:17:52;;;;;;;;;;;10.70;99.90;;;10.06;100.00;96543.66;10536279;28;1651;-73
2022/10/28 06:22:55;;;;;;;;;;;10.80;99.90;;;10.18;100.00;96546.16;10542919;28;809;-73
2022/10/28 06:27:59;;;;;;;;;;;11.00;99.90;;;10.16;100.00;96549.13;10553113;28;2042;-70
2022/10/28 06:33:01;;;;;;;;;;;11.00;99.90;;;10.27;100.00;96548.22;10545904;28;1117;-72
2022/10/28 06:38:04;;;;;;;;;;;11.00;99.90;;;10.31;100.00;96535.09;10541664;28;1597;-72
2022/10/28 06:43:13;;;;;;;;;;;11.00;99.90;;;10.43;100.00;96545.66;10544604;28;1176;-72
2022/10/28 06:48:15;;;;;;;;;;;11.10;99.90;;;10.61;100.00;96539.94;10538483;28;1961;-74
2022/10/28 06:53:18;;;;;;;;;;;11.30;99.90;;;10.88;100.00;96539.94;10541780;28;817;-71
2022/10/28 06:58:21;;;;;;;;;;;11.50;99.90;;;11.04;100.00;96535.47;10535863;28;1648;-72
2022/10/28 07:03:24;;;;;;;;;;;11.60;99.90;;;11.19;100.00;96546.31;10542427;28;1186;-74
2022/10/28 07:08:26;;;;;;;;;;;11.80;99.90;;;11.32;100.00;96556.66;10541147;28;1890;-73
2022/10/28 07:13:29;;;;;;;;;;;11.90;99.90;;;11.35;100.00;96558.03;10542006;28;1011;-72
2022/10/28 07:18:32;;;;;;;;;;;12.00;99.90;;;11.55;100.00;96554.66;10539642;28;1671;-72
2022/10/28 07:23:34;;;;;;;;;;;12.20;99.90;;;11.67;100.00;96562.53;10542931;28;955;-73
2022/10/28 07:28:37;;;;;;;;;;;12.30;99.90;;;11.97;100.00;96580.75;10529132;28;1914;-75
2022/10/28 07:33:39;;;;;;;;;;;12.50;99.90;;;12.20;100.00;96577.59;10540812;28;1172;-74
2022/10/28 07:38:42;;;;;;;;;;;12.70;99.90;;;12.75;100.00;96575.34;10537874;28;1569;-73
2022/10/28 07:43:45;;;;;;;;;;;13.00;99.90;;;13.18;100.00;96576.72;10539612;28;1110;-74
2022/10/28 07:48:48;;;;;;;;;;;13.40;99.90;;;13.70;100.00;96578.31;10535748;28;2363;-73
2022/10/28 07:53:50;;;;;;;;;;;13.90;99.90;;;13.73;100.00;96573.16;10536756;28;1663;-73
2022/10/28 07:58:53;;;;;;;;;;;14.20;99.90;;;14.09;100.00;96566.84;10534459;28;1525;-73
2022/10/28 08:03:56;;;;;;;;;;;14.50;99.90;;;14.70;100.00;96563.88;10538485;28;1302;-75
2022/10/28 08:08:58;;;;;;;;;;;14.90;99.90;;;15.07;100.00;96568.72;10536410;28;1980;-74
2022/10/28 08:14:01;;;;;;;;;;;15.40;99.90;;;15.36;100.00;96560.66;10534744;28;1739;-74
2022/10/28 08:19:04;;;;;;;;;;;15.80;99.90;;;16.06;100.00;96569.19;10539319;28;1117;-71
2022/10/28 08:24:09;;;;;;;;;;;16.20;99.90;;;16.38;100.00;96565.00;10539770;28;1633;-72
2022/10/28 08:29:12;;;;;;;;;;;16.60;99.90;;;16.79;100.00;96556.31;10533392;28;1981;-73
2022/10/28 08:34:15;;;;;;;;;;;17.00;99.90;;;17.26;97.19;96547.16;10545126;28;1240;-73
2022/10/28 08:39:18;;;;;;;;;;;17.40;99.90;;;17.66;93.10;96553.78;10543371;28;1628;-72
2022/10/28 08:44:20;;;;;;;;;;;17.80;99.90;;;18.16;82.72;96548.53;10540807;28;915;-72
2022/10/28 08:49:23;;;;;;;;;;;18.20;99.90;;;18.47;77.09;96540.53;10522898;28;1910;-72
2022/10/28 08:54:26;;;;;;;;;;;18.60;99.90;;;18.49;76.03;96545.66;10537448;28;1306;-72
2022/10/28 08:59:28;;;;;;;;;;;19.00;99.90;;;18.77;72.32;96547.25;10529963;28;1433;-72
2022/10/28 09:04:31;;;;;;;;;;;19.10;99.90;;;18.85;70.61;96545.72;10536448;28;1113;-72
2022/10/28 09:09:34;;;;;;;;;;;19.20;99.90;;;19.00;69.36;96561.69;10535061;28;1907;-73
2022/10/28 09:14:37;;;;;;;;;;;19.30;99.90;;;19.04;69.60;96553.72;10536936;28;880;-73
2022/10/28 09:19:40;;;;;;;;;;;19.40;99.90;;;19.01;70.38;96551.59;10529932;28;1624;-72
2022/10/28 09:24:42;;;;;;;;;;;19.50;99.90;;;18.93;72.15;96544.16;10536022;28;1224;-74
2022/10/28 09:29:45;;;;;;;;;;;19.40;99.90;;;18.74;73.32;96539.69;10525763;28;1976;-73
2022/10/28 09:34:48;;;;;;;;;;;19.40;99.90;;;18.61;74.60;96541.31;10536091;28;1624;-74
2022/10/28 09:39:51;;;;;;;;;;;19.30;99.90;;;18.74;73.78;96545.13;10533064;28;1098;-73
2022/10/28 09:44:54;;;;;;;;;;;19.20;99.90;;;18.81;75.24;96536.53;10531159;28;1604;-72
2022/10/28 09:49:56;;;;;;;;;;;19.40;99.90;;;18.77;75.95;96551.91;10537489;28;1973;-72
2022/10/28 09:54:59;;;;;;;;;;;19.40;99.90;;;18.88;75.15;96539.63;10539984;28;1777;-72
2022/10/28 10:00:02;;;;;;;;;;;19.50;99.90;;;18.85;76.53;96543.78;10546259;28;1427;-71
2022/10/28 10:05:05;;;;;;;;;;;19.50;99.90;;;19.02;77.18;96543.13;10541675;28;1744;-71
2022/10/28 10:10:08;;;;;;;;;;;19.60;99.90;;;19.25;76.03;96541.22;10543485;28;1982;-71
2022/10/28 10:15:10;;;;;;;;;;;19.80;99.90;;;19.64;73.68;96531.53;10542139;28;1612;-74
2022/10/28 10:20:13;;;;;;;;;;;20.00;99.90;;;19.98;73.21;96520.78;10543016;28;1138;-72
2022/10/28 10:25:16;;;;;;;;;;;20.30;99.90;;;20.34;70.67;96527.13;10540696;28;1683;-71
2022/10/28 10:30:19;;;;;;;;;;;20.60;99.90;;;20.77;67.95;96524.50;10541207;28;1978;-74
2022/10/28 10:35:22;;;;;;;;;;;21.00;99.90;;;21.31;66.76;96522.25;10543497;28;1186;-72
2022/10/28 10:40:24;;;;;;;;;;;21.40;99.90;;;22.27;61.44;96533.72;10538334;28;1727;-73
2022/10/28 10:45:27;;;;;;;;;;;21.90;99.90;;;22.75;56.44;96524.22;10537677;28;1829;-73
2022/10/28 10:50:30;;;;;;;;;;;22.70;99.90;;;23.06;54.10;96512.88;10538239;28;1917;-75
2022/10/28 10:55:39;;;;;;;;;;;;;;;23.23;51.15;96511.94;10536692;28;1706;-75
2022/10/28 11:00:42;;;;;;;;;;;;;;;23.01;47.73;96504.84;10538411;28;1750;-73
2022/10/28 11:05:45;;;;;;;;;;;;;;;22.56;54.62;96502.75;10538213;28;1711;-73
2022/10/28 11:10:56;;;;;;;;;;;;;;;22.31;55.62;96499.03;10538704;28;1909;-72
2022/10/28 11:16:00;;;;;;;;;;;;;;;21.94;57.76;96490.50;10532717;28;1588;-72
2022/10/28 11:21:03;;;;;;;;;;;;;;;22.09;59.55;96484.53;10539936;28;1192;-74
2022/10/28 11:26:07;;;;;;;;;;;;;;;22.14;59.25;96483.53;10535697;28;1675;-73
2022/10/28 11:31:10;;;;;;;;;;;;;;;22.12;59.17;96470.16;10534823;28;1910;-71
2022/10/28 11:36:13;;;;;;;;;;;;;;;22.24;57.96;96476.84;10536953;28;1477;-73
2022/10/28 11:41:16;;;;;;;;;;;;;;;22.26;57.98;96469.09;10541009;28;1212;-72
2022/10/28 11:46:32;;;;;;;;;;;;;;;22.05;60.19;96467.09;10571321;27;1593;-72
2022/10/28 11:51:36;;;;;;;;;;;;;;;22.07;60.13;96461.28;10568085;28;1632;-74
2022/10/28 11:56:39;;;;;;;;;;;;;;;22.13;58.20;96460.00;10575613;28;1469;-75
2022/10/28 12:01:42;;;;;;;;;;;;;;;22.34;57.95;96452.63;10572338;28;1909;-73
2022/10/28 12:06:46;;;;;;;;;;;;;;;22.53;56.98;96452.19;10568976;28;1837;-72
2022/10/28 12:11:49;;;;;;;;;;;;;;;22.65;57.11;96441.28;10558043;28;1173;-73
2022/10/28 12:16:52;;;;;;;;;;;;;;;22.79;56.74;96438.25;10567180;28;1687;-72
2022/10/28 12:21:56;;;;;;;;;;;;;;;22.92;57.22;96436.41;10570141;28;1917;-73
2022/10/28 12:27:00;;;;;;;;;;;;;;;23.25;53.38;96427.38;10564031;28;1800;-72
2022/10/28 12:32:03;;;;;;;;;;;;;;;23.42;52.61;96427.19;10570345;28;1161;-73
2022/10/28 12:37:06;;;;;;;;;;;;;;;23.51;52.66;96424.31;10567645;28;1632;-73
2022/10/28 12:42:09;;;;;;;;;;;;;;;23.67;50.61;96412.38;10569617;28;1914;-73
2022/10/28 12:47:12;;;;;;;;;;;24.00;99.90;;;23.79;50.00;96414.31;10566112;28;1577;-75
2022/10/28 12:52:16;;;;;;;;;;;24.20;99.90;;;23.95;49.21;96408.94;10569325;28;1145;-73
2022/10/28 12:57:18;;;;;;;;;;;24.30;99.90;;;23.90;48.84;96409.97;10535879;28;1714;-72
2022/10/28 13:02:21;;;;;;;;;;;24.30;99.90;;;23.84;48.45;96402.31;10533261;28;1914;-75
2022/10/28 13:07:25;;;;;;;;;;;24.30;99.90;;;23.73;48.10;96411.00;10540259;28;1624;-71
2022/10/28 13:12:27;;;;;;;;;;;24.30;99.90;;;23.84;47.72;96405.03;10541075;28;1039;-73
2022/10/28 13:17:30;;;;;;;;;;;24.20;99.90;;;24.23;45.72;96400.75;10535963;28;1675;-73
2022/10/28 13:22:33;;;;;;;;;;;24.40;99.90;;;24.30;46.01;96394.69;10542269;28;1977;-73
2022/10/28 13:27:36;;;;;;;;;;;24.60;99.90;;;24.47;45.34;96400.75;10568516;27;1537;-74
2022/10/28 13:32:43;;;;;;;;;;;24.80;99.90;;;24.38;44.89;96391.84;10541235;28;1113;-72
2022/10/28 13:37:46;;;;;;;;;;;24.80;99.90;;;24.08;46.18;96399.53;10539532;28;1644;-75
2022/10/28 13:42:48;;;;;;;;;;;24.70;99.90;;;23.72;46.92;96392.91;10537955;28;1909;-72
2022/10/28 13:47:51;;;;;;;;;;;24.40;99.90;;;23.65;47.52;96392.69;10533740;28;2673;-73
2022/10/28 13:52:54;;;;;;;;;;;24.20;99.90;;;23.30;47.25;96392.28;10537581;28;1679;-72
2022/10/28 13:57:57;;;;;;;;;;;24.10;99.90;;;23.07;47.63;96391.91;10537291;28;1465;-73
2022/10/28 14:03:00;;;;;;;;;;;23.80;99.90;;;22.92;48.61;96387.88;10540067;28;1991;-73
2022/10/28 14:08:04;;;;;;;;;;;23.70;99.90;;;22.71;49.20;96397.22;10532504;28;1620;-73
2022/10/28 14:13:07;;;;;;;;;;;23.50;99.90;;;22.66;49.85;96390.81;10538273;28;828;-75
2022/10/28 14:18:10;;;;;;;;;;;23.40;99.90;;;22.50;60.72;96403.53;10538337;28;1672;-73
2022/10/28 14:23:35;;;;;;;;;;;23.20;99.90;;;22.38;67.10;96397.97;10533893;28;1972;-75
2022/10/28 14:28:37;;;;;;;;;;;23.10;99.90;;;22.30;70.56;96404.34;10531535;28;1544;-75
2022/10/28 14:33:40;;;;;;;;;;;23.00;99.90;;;22.21;72.67;96403.59;10537510;28;1106;-72
2022/10/28 14:38:43;;;;;;;;;;;22.90;99.90;;;22.09;75.18;96402.38;10530194;28;1872;-72
2022/10/28 14:43:45;;;;;;;;;;;22.80;99.90;;;22.03;77.19;96392.72;10536031;28;1906;-74
2022/10/28 14:48:48;;;;;;;;;;;22.80;99.90;;;21.93;79.61;96395.84;10527538;28;1805;-73
2022/10/28 14:53:53;;;;;;;;;;;22.70;99.90;;;21.90;79.78;96404.72;10531341;28;1635;-74
2022/10/28 14:58:56;;;;;;;;;;;22.60;99.90;;;21.77;80.98;96398.34;10518477;28;1461;-73
2022/10/28 15:03:59;;;;;;;;;;;22.60;99.90;;;21.93;80.27;96398.56;10536706;28;1895;-72
2022/10/28 15:09:02;;;;;;;;;;;22.60;99.90;;;21.71;82.51;96398.88;10527784;28;1557;-73
2022/10/28 15:14:05;;;;;;;;;;;22.50;99.90;;;21.64;83.81;96393.13;10536600;28;845;-75
2022/10/28 15:19:08;;;;;;;;;;;22.40;99.90;;;21.45;85.29;96399.81;10535208;28;1660;-73
2022/10/28 15:24:10;;;;;;;;;;;22.20;99.90;;;21.37;85.68;96406.09;10535914;28;1909;-73
2022/10/28 15:29:13;;;;;;;;;;;22.10;99.90;;;21.37;85.34;96402.56;10526198;28;1442;-73
2022/10/28 15:34:17;;;;;;;;;;;22.10;99.90;;;21.20;86.93;96400.66;10534641;28;1128;-75
2022/10/28 15:39:21;;;;;;;;;;;22.00;99.90;;;20.96;89.46;96399.25;10533831;28;1727;-77
2022/10/28 15:44:24;;;;;;;;;;;21.80;99.90;;;20.74;91.78;96402.19;10534864;28;1969;-74
2022/10/28 15:49:26;;;;;;;;;;;21.60;99.90;;;20.46;94.64;96405.25;10529016;28;1644;-75
2022/10/28 15:54:29;;;;;;;;;;;21.40;99.90;;;20.24;97.03;96397.22;10529061;28;1750;-78
2022/10/28 15:59:36;;;;;;;;;;;21.10;99.90;;;19.79;100.00;96400.19;10535560;28;1520;-76
2022/10/28 16:04:39;;;;;;;;;;;20.90;99.90;;;19.57;100.00;96394.78;10536853;28;1975;-74
2022/10/28 16:09:41;;;;;;;;;;;20.60;99.90;;;19.44;100.00;96396.50;10522585;28;1699;-72
2022/10/28 16:14:44;;;;;;;;;;;20.30;99.90;;;19.45;100.00;96384.47;10527820;28;1664;-73
2022/10/28 16:19:47;;;;;;;;;;;20.30;99.90;;;18.97;100.00;96390.69;10534376;28;983;-73
2022/10/28 16:24:50;;;;;;;;;;;20.10;99.90;;;18.73;100.00;96401.91;10538301;28;1982;-73
2022/10/28 16:29:53;;;;;;;;;;;19.80;99.90;;;18.59;100.00;96401.16;10535783;28;1445;-74
2022/10/28 16:34:55;;;;;;;;;;;19.60;99.90;;;18.53;100.00;96399.66;10542073;28;1643;-73
2022/10/28 16:39:58;;;;;;;;;;;19.50;99.90;;;18.50;100.00;96405.72;10543793;28;1146;-73
2022/10/28 16:45:01;;;;;;;;;;;19.40;99.90;;;18.48;100.00;96405.22;10542160;28;1914;-72
2022/10/28 16:50:04;;;;;;;;;;;19.30;99.90;;;18.53;100.00;96399.66;10544094;28;1128;-74
2022/10/28 16:55:06;;;;;;;;;;;19.30;99.90;;;18.47;100.00;96407.13;10540116;28;1948;-72
2022/10/28 17:00:09;;;;;;;;;;;19.30;99.90;;;18.42;100.00;96409.97;10539586;28;1691;-73
2022/10/28 17:05:12;;;;;;;;;;;19.20;99.90;;;18.35;100.00;96412.31;10540771;28;1914;-73
2022/10/28 17:10:14;;;;;;;;;;;19.20;99.90;;;18.07;100.00;96408.88;10543642;28;1045;-71
2022/10/28 17:15:17;;;;;;;;;;;19.00;99.90;;;17.76;100.00;96414.97;10543023;28;1722;-71
2022/10/28 17:20:20;;;;;;;;;;;18.80;99.90;;;17.62;100.00;96414.13;10500280;28;722;-73
2022/10/28 17:25:23;;;;;;;;;;;18.60;99.90;;;17.39;100.00;96421.38;10524221;28;1957;-72
2022/10/28 17:30:26;;;;;;;;;;;18.50;99.90;;;17.35;100.00;96430.44;10529125;28;1588;-73
2022/10/28 17:35:29;;;;;;;;;;;18.40;99.90;;;17.09;100.00;96432.81;10538335;28;1522;-73
2022/10/28 17:40:32;;;;;;;;;;;18.10;99.90;;;16.89;100.00;96423.13;10539934;28;1141;-74
2022/10/28 17:45:35;;;;;;;;;;;17.90;99.90;;;16.75;100.00;96429.31;10530771;28;1914;-73
2022/10/28 17:50:38;;;;;;;;;;;17.70;99.90;;;16.78;100.00;96429.81;10539105;28;1188;-75
2022/10/28 17:55:41;;;;;;;;;;;17.70;99.90;;;17.00;100.00;96421.84;10536404;28;1671;-73
2022/10/28 18:00:44;;;;;;;;;;;17.70;99.90;;;16.97;100.00;96425.13;10538865;28;1691;-74
2022/10/28 18:05:47;;;;;;;;;;;17.70;99.90;;;16.88;100.00;96425.03;10536421;28;1901;-74
2022/10/28 18:10:50;;;;;;;;;;;17.70;99.90;;;16.78;100.00;96422.47;10538291;28;1184;-74
2022/10/28 18:15:53;;;;;;;;;;;17.70;99.90;;;16.79;100.00;96423.28;10537614;28;1716;-75
2022/10/28 18:20:55;;;;;;;;;;;17.70;99.90;;;16.65;100.00;96423.19;10539052;28;1171;-73
2022/10/28 18:25:58;;;;;;;;;;;17.60;99.90;;;16.74;100.00;96425.00;10531051;28;1983;-73
2022/10/28 18:31:01;;;;;;;;;;;17.50;99.90;;;16.72;100.00;96429.88;10530301;28;1485;-74
2022/10/28 18:36:06;;;;;;;;;;;17.50;99.90;;;16.58;100.00;96429.00;10535942;28;1593;-74
2022/10/28 18:41:08;;;;;;;;;;;17.50;99.90;;;16.54;100.00;96430.72;10536764;28;1153;-73
2022/10/28 18:46:11;;;;;;;;;;;17.40;99.90;;;16.55;100.00;96434.25;10535109;28;1971;-73
2022/10/28 18:51:14;;;;;;;;;;;17.40;99.90;;;16.52;100.00;96446.47;10533245;28;1632;-75
2022/10/28 18:56:16;;;;;;;;;;;17.40;99.90;;;16.37;100.00;96444.00;10535764;28;1398;-73
2022/10/28 19:01:19;;;;;;;;;;;17.20;99.90;;;16.31;100.00;96439.75;10535450;28;1727;-75
2022/10/28 19:06:22;;;;;;;;;;;17.20;99.90;;;16.39;100.00;96439.06;10537423;28;1910;-72
2022/10/28 19:11:28;;;;;;;;;;;17.20;99.90;;;16.46;100.00;96447.66;10537356;28;1192;-73
2022/10/28 19:16:32;;;;;;;;;;;17.20;99.90;;;16.44;100.00;96445.25;10534921;28;1683;-73
2022/10/28 19:21:35;;;;;;;;;;;17.20;99.90;;;16.53;100.00;96455.41;10535818;28;1117;-74
2022/10/28 19:26:38;;;;;;;;;;;17.30;99.90;;;16.64;100.00;96456.88;10528159;28;1901;-73
2022/10/28 19:31:42;;;;;;;;;;;17.40;99.90;;;16.51;100.00;96465.78;10529641;28;1145;-73
2022/10/28 19:36:45;;;;;;;;;;;17.30;99.90;;;16.42;100.00;96461.00;10533342;28;1465;-74
2022/10/28 19:41:48;;;;;;;;;;;17.30;99.90;;;16.33;100.00;96456.53;10535330;28;1047;-71
2022/10/28 19:46:51;;;;;;;;;;;17.30;99.90;;;16.20;100.00;96464.28;10533387;28;1921;-73
2022/10/28 19:51:54;;;;;;;;;;;17.10;99.90;;;16.26;100.00;96464.22;10533984;28;1643;-72
2022/10/28 19:56:56;;;;;;;;;;;17.10;99.90;;;15.99;100.00;96454.84;10533936;28;1529;-73
2022/10/28 20:01:59;;;;;;;;;;;17.00;99.90;;;15.88;100.00;96456.06;10533307;28;1168;-75
2022/10/28 20:07:02;;;;;;;;;;;16.80;99.90;;;15.80;100.00;96456.69;10539208;28;1914;-72
2022/10/28 20:12:05;;;;;;;;;;;16.70;99.90;;;15.68;100.00;96466.03;10542580;28;1093;-74
2022/10/28 20:17:07;;;;;;;;;;;16.60;99.90;;;15.72;100.00;96469.00;10538771;28;1584;-74
2022/10/28 20:22:10;;;;;;;;;;;16.60;99.90;;;15.62;100.00;96466.41;10544160;28;1149;-73
2022/10/28 20:27:13;;;;;;;;;;;16.50;99.90;;;15.64;100.00;96465.00;10537110;28;1966;-76
2022/10/28 20:32:15;;;;;;;;;;;16.50;99.90;;;15.68;100.00;96462.53;10543128;28;1224;-73
2022/10/28 20:37:18;;;;;;;;;;;16.50;99.90;;;15.58;100.00;96460.69;10538752;28;1623;-74
2022/10/28 20:42:21;;;;;;;;;;;16.50;99.90;;;15.56;100.00;96465.63;10500620;28;1030;-76
2022/10/28 20:47:24;;;;;;;;;;;16.40;99.90;;;15.65;100.00;96471.25;10532754;28;1993;-73
2022/10/28 20:52:26;;;;;;;;;;;16.40;99.90;;;15.62;100.00;96472.63;10535800;28;1557;-73
2022/10/28 20:57:29;;;;;;;;;;;16.50;99.90;;;15.68;100.00;96466.03;10540895;28;1474;-72
2022/10/28 21:02:32;;;;;;;;;;;16.40;99.90;;;15.67;100.00;96469.84;10540990;28;1172;-73
2022/10/28 21:07:35;;;;;;;;;;;16.50;99.90;;;15.60;100.00;96472.06;10534741;28;1968;-72
2022/10/28 21:12:38;;;;;;;;;;;16.50;99.90;;;15.45;100.00;96471.44;10541536;28;1196;-74
2022/10/28 21:17:41;;;;;;;;;;;16.30;99.90;;;15.29;100.00;96457.25;10540049;28;1671;-73
2022/10/28 21:22:44;;;;;;;;;;;16.30;99.90;;;15.25;100.00;96458.91;10543643;28;1121;-76
2022/10/28 21:27:47;;;;;;;;;;;16.20;99.90;;;15.27;100.00;96460.25;10535240;28;1905;-75
2022/10/28 21:32:50;;;;;;;;;;;16.10;99.90;;;15.23;100.00;96452.97;10541279;28;1186;-72
2022/10/28 21:37:53;;;;;;;;;;;16.10;99.90;;;15.34;100.00;96458.00;10539152;28;1742;-73
2022/10/28 21:42:57;;;;;;;;;;;16.30;99.90;;;15.39;100.00;96459.84;10538360;28;1283;-73
2022/10/28 21:48:00;;;;;;;;;;;16.10;99.90;;;15.43;100.00;96462.78;10533326;28;1926;-74
2022/10/28 21:53:02;;;;;;;;;;;16.20;99.90;;;15.37;100.00;96456.63;10535802;28;1659;-72
2022/10/28 21:58:06;;;;;;;;;;;16.20;99.90;;;15.23;100.00;96461.09;10536369;28;1429;-72
2022/10/28 22:03:09;;;;;;;;;;;16.10;99.90;;;15.08;100.00;96452.03;10538593;28;1102;-73
2022/10/28 22:08:11;;;;;;;;;;;16.00;99.90;;;14.95;100.00;96447.28;10540933;28;1975;-74
2022/10/28 22:13:16;;;;;;;;;;;15.90;99.90;;;14.88;100.00;96446.78;10537763;28;1230;-73
2022/10/28 22:18:18;;;;;;;;;;;15.90;99.90;;;14.83;100.00;96447.66;10531792;28;1924;-75
2022/10/28 22:23:21;;;;;;;;;;;15.80;99.90;;;14.72;100.00;96448.03;10531409;28;1643;-72
2022/10/28 22:28:24;;;;;;;;;;;15.70;99.90;;;14.74;100.00;96443.13;10533857;28;1901;-73
2022/10/28 22:33:27;;;;;;;;;;;15.70;99.90;;;14.60;100.00;96445.69;10542755;28;2021;-73
2022/10/28 22:38:29;;;;;;;;;;;15.60;99.90;;;14.50;100.00;96445.75;10536697;28;1648;-73
2022/10/28 22:43:32;;;;;;;;;;;15.50;99.90;;;14.44;100.00;96444.97;10545286;28;1082;-73
2022/10/28 22:48:35;;;;;;;;;;;15.40;99.90;;;14.35;100.00;96454.75;10541893;28;1972;-73
2022/10/28 22:53:38;;;;;;;;;;;15.30;99.90;;;14.33;100.00;96460.44;10539782;28;1075;-71
2022/10/28 22:58:40;;;;;;;;;;;15.50;99.90;;;14.20;100.00;96450.25;10537436;28;1651;-74
2022/10/28 23:03:43;;;;;;;;;;;15.30;99.90;;;14.09;100.00;96450.59;10538560;28;1164;-73
2022/10/28 23:08:50;;;;;;;;;;;15.20;99.90;;;14.00;100.00;96444.97;10528684;28;1976;-73
2022/10/28 23:13:53;;;;;;;;;;;15.00;99.90;;;13.90;100.00;96443.13;10534263;28;1624;-72
2022/10/28 23:18:56;;;;;;;;;;;14.90;99.90;;;13.89;100.00;96451.50;10533549;28;1133;-73